createdAt,value
2018-05-27T00:02:17.982Z,17.30
2018-05-27T00:04:44.721Z,19.47
2018-05-27T00:07:11.442Z,18.90
2018-05-27T00:09:38.176Z,18.77
2018-05-27T00:12:04.930Z,20.03
2018-05-27T00:14:31.662Z,18.80
2018-05-27T00:16:58.420Z,17.87
2018-05-27T00:19:25.183Z,22.17
2018-05-27T00:21:51.899Z,19.07
2018-05-27T00:24:18.622Z,18.53
2018-05-27T00:26:45.380Z,16.77
2018-05-27T00:29:12.267Z,18.10
2018-05-27T00:31:38.971Z,18.03
2018-05-27T00:34:05.716Z,20.57
2018-05-27T00:36:32.448Z,19.83
2018-05-27T00:38:59.167Z,17.50
2018-05-27T00:41:25.977Z,19.73
2018-05-27T00:43:52.792Z,18.63
2018-05-27T00:46:19.503Z,20.67
2018-05-27T00:48:46.299Z,16.37
2018-05-27T00:51:13.040Z,16.60
2018-05-27T00:54:00.563Z,17.23
2018-05-27T00:56:27.388Z,17.37
2018-05-27T00:58:54.253Z,19.37
2018-05-27T01:01:20.964Z,18.83
2018-05-27T01:03:47.709Z,20.93
2018-05-27T01:06:14.443Z,23.67
2018-05-27T01:08:41.312Z,19.43
2018-05-27T01:11:08.061Z,19.07
2018-05-27T01:13:34.816Z,18.33
2018-05-27T01:16:01.571Z,20.00
2018-05-27T01:18:28.376Z,19.57
2018-05-27T01:20:55.138Z,19.83
2018-05-27T01:23:21.861Z,20.63
2018-05-27T01:25:48.595Z,18.03
2018-05-27T01:28:15.336Z,18.80
2018-05-27T01:30:42.099Z,17.37
2018-05-27T01:33:08.913Z,19.37
2018-05-27T01:35:35.704Z,19.43
2018-05-27T01:38:02.446Z,17.17
2018-05-27T01:40:29.268Z,18.50
2018-05-27T01:42:55.993Z,19.37
2018-05-27T01:45:22.732Z,17.47
2018-05-27T01:47:49.453Z,20.97
2018-05-27T01:50:16.210Z,23.97
2018-05-27T01:52:42.932Z,24.10
2018-05-27T01:55:09.628Z,21.47
2018-05-27T01:57:36.368Z,21.33
2018-05-27T02:00:03.091Z,19.90
2018-05-27T02:02:29.829Z,18.00
2018-05-27T02:04:56.600Z,21.27
2018-05-27T02:07:23.308Z,20.83
2018-05-27T02:09:50.057Z,20.20
2018-05-27T02:12:16.769Z,23.50
2018-05-27T02:14:43.507Z,22.87
2018-05-27T02:17:10.273Z,19.77
2018-05-27T02:19:36.995Z,25.37
2018-05-27T02:22:03.757Z,22.07
2018-05-27T02:24:30.480Z,19.97
2018-05-27T02:26:57.198Z,20.23
2018-05-27T02:29:23.954Z,21.03
2018-05-27T02:31:50.689Z,22.47
2018-05-27T02:34:17.425Z,19.70
2018-05-27T02:36:44.159Z,19.23
2018-05-27T02:39:10.946Z,18.77
2018-05-27T02:41:37.687Z,21.83
2018-05-27T02:44:04.388Z,23.73
2018-05-27T02:46:31.121Z,21.57
2018-05-27T02:48:57.841Z,20.90
2018-05-27T02:51:24.565Z,19.90
2018-05-27T02:53:51.327Z,22.63
2018-05-27T02:56:18.085Z,19.33
2018-05-27T02:58:44.857Z,23.00
2018-05-27T03:01:11.571Z,22.77
2018-05-27T03:03:38.291Z,21.67
2018-05-27T03:06:05.033Z,23.03
2018-05-27T03:08:31.776Z,22.33
2018-05-27T03:10:58.539Z,20.90
2018-05-27T03:13:25.400Z,20.73
2018-05-27T03:15:52.100Z,23.83
2018-05-27T03:18:18.904Z,19.80
2018-05-27T03:20:45.667Z,20.20
2018-05-27T03:23:12.589Z,24.20
2018-05-27T03:25:39.427Z,24.33
2018-05-27T03:28:06.194Z,22.10
2018-05-27T03:30:33.037Z,22.40
2018-05-27T03:32:59.767Z,19.07
2018-05-27T03:35:26.595Z,19.03
2018-05-27T03:37:53.307Z,17.17
2018-05-27T03:40:20.032Z,19.43
2018-05-27T03:42:46.811Z,17.80
2018-05-27T03:45:13.548Z,17.77
2018-05-27T03:47:40.362Z,15.17
2018-05-27T03:50:07.124Z,15.10
2018-05-27T03:52:33.925Z,15.83
2018-05-27T03:55:00.666Z,15.37
2018-05-27T03:57:27.362Z,14.87
2018-05-27T03:59:54.980Z,13.10
2018-05-27T04:02:21.726Z,14.37
2018-05-27T04:04:54.277Z,14.17
2018-05-27T04:07:26.911Z,13.53
2018-05-27T04:09:53.691Z,19.03
2018-05-27T04:12:20.473Z,13.07
2018-05-27T04:14:47.289Z,14.20
2018-05-27T04:17:14.028Z,13.17
2018-05-27T04:19:40.841Z,12.93
2018-05-27T04:22:07.695Z,12.80
2018-05-27T04:24:34.452Z,12.23
2018-05-27T04:27:01.213Z,11.83
2018-05-27T04:29:27.952Z,12.93
2018-05-27T04:31:54.670Z,13.57
2018-05-27T04:34:21.542Z,12.47
2018-05-27T04:36:48.272Z,18.87
2018-05-27T04:39:15.008Z,10.87
2018-05-27T04:41:41.806Z,12.70
2018-05-27T04:44:08.538Z,10.50
2018-05-27T04:46:35.296Z,12.10
2018-05-27T04:49:02.091Z,11.57
2018-05-27T04:51:28.867Z,9.73
2018-05-27T04:53:55.624Z,10.10
2018-05-27T04:56:22.336Z,9.93
2018-05-27T04:58:49.192Z,9.87
2018-05-27T05:01:15.948Z,9.10
2018-05-27T05:03:42.706Z,11.03
2018-05-27T05:06:09.420Z,9.87
2018-05-27T05:08:36.191Z,11.70
2018-05-27T05:11:03.198Z,9.37
2018-05-27T05:13:29.906Z,9.10
2018-05-27T05:15:56.611Z,9.47
2018-05-27T05:18:23.364Z,12.43
2018-05-27T05:20:50.137Z,10.03
2018-05-27T05:23:16.872Z,10.07
2018-05-27T05:25:43.648Z,12.03
2018-05-27T05:28:10.359Z,9.90
2018-05-27T05:30:37.114Z,10.53
2018-05-27T05:33:03.847Z,9.73
2018-05-27T05:35:30.699Z,9.57
2018-05-27T05:37:57.411Z,9.70
2018-05-27T05:40:24.148Z,10.43
2018-05-27T05:42:50.875Z,9.53
2018-05-27T05:45:17.608Z,10.00
2018-05-27T05:47:44.348Z,9.47
2018-05-27T05:50:11.100Z,10.43
2018-05-27T05:52:37.794Z,10.03
2018-05-27T05:55:04.551Z,13.67
2018-05-27T05:57:31.244Z,10.13
2018-05-27T05:59:57.969Z,10.20
2018-05-27T06:02:24.723Z,10.23
2018-05-27T06:04:51.404Z,9.80
2018-05-27T06:07:18.127Z,9.60
2018-05-27T06:09:44.844Z,9.93
2018-05-27T06:12:11.544Z,9.07
2018-05-27T06:14:38.229Z,9.80
2018-05-27T06:17:05.035Z,9.77
2018-05-27T06:19:31.747Z,9.10
2018-05-27T06:21:58.431Z,9.30
2018-05-27T06:24:25.154Z,9.30
2018-05-27T06:26:51.846Z,8.07
2018-05-27T06:29:18.538Z,8.88
2018-05-27T06:31:45.240Z,8.93
2018-05-27T06:34:11.927Z,8.55
2018-05-27T06:36:38.639Z,9.52
2018-05-27T06:39:05.344Z,8.38
2018-05-27T06:41:32.038Z,8.68
2018-05-27T06:43:58.743Z,9.75
2018-05-27T06:46:25.468Z,9.32
2018-05-27T06:48:52.368Z,10.45
2018-05-27T06:51:19.064Z,10.90
2018-05-27T06:53:45.815Z,8.35
2018-05-27T06:56:12.529Z,8.88
2018-05-27T06:58:39.237Z,10.25
2018-05-27T07:01:05.960Z,8.63
2018-05-27T07:03:32.656Z,10.70
2018-05-27T07:05:59.351Z,8.20
2018-05-27T07:08:26.091Z,6.65
2018-05-27T07:10:52.835Z,9.13
2018-05-27T07:13:19.551Z,7.70
2018-05-27T07:15:46.251Z,10.18
2018-05-27T07:18:12.927Z,9.55
2018-05-27T07:20:39.655Z,10.13
2018-05-27T07:23:06.366Z,9.52
2018-05-27T07:25:33.142Z,9.95
2018-05-27T07:27:59.834Z,9.95
2018-05-27T07:30:26.564Z,8.75
2018-05-27T07:32:53.286Z,10.98
2018-05-27T07:35:20.020Z,8.85
2018-05-27T07:37:46.803Z,10.40
2018-05-27T07:40:13.490Z,8.02
2018-05-27T07:42:40.308Z,8.57
2018-05-27T07:45:07.136Z,7.68
2018-05-27T07:47:33.965Z,8.63
2018-05-27T07:50:01.080Z,10.98
2018-05-27T07:52:27.932Z,6.68
2018-05-27T07:54:55.124Z,7.53
2018-05-27T07:57:21.872Z,7.55
2018-05-27T07:59:48.631Z,7.87
2018-05-27T08:02:15.415Z,7.07
2018-05-27T08:04:42.204Z,6.50
2018-05-27T08:07:08.972Z,11.02
2018-05-27T08:09:35.755Z,8.13
2018-05-27T08:12:02.561Z,6.95
2018-05-27T08:14:29.357Z,7.15
2018-05-27T08:16:56.248Z,7.20
2018-05-27T08:19:23.003Z,10.00
2018-05-27T08:21:49.794Z,7.20
2018-05-27T08:24:16.681Z,7.25
2018-05-27T08:26:43.444Z,8.25
2018-05-27T08:29:10.193Z,8.48
2018-05-27T08:31:36.911Z,8.13
2018-05-27T08:34:03.855Z,8.37
2018-05-27T08:36:30.656Z,8.33
2018-05-27T08:38:57.419Z,7.97
2018-05-27T08:41:24.138Z,7.30
2018-05-27T08:43:50.863Z,8.67
2018-05-27T08:46:17.684Z,8.30
2018-05-27T08:48:44.458Z,10.63
2018-05-27T08:51:11.244Z,14.20
2018-05-27T08:53:38.017Z,9.20
2018-05-27T08:56:04.790Z,10.90
2018-05-27T08:58:31.728Z,10.53
2018-05-27T09:00:58.488Z,9.20
2018-05-27T09:03:25.288Z,9.47
2018-05-27T09:05:51.989Z,10.10
2018-05-27T09:08:18.731Z,9.43
2018-05-27T09:10:45.657Z,11.20
2018-05-27T09:13:12.401Z,10.90
2018-05-27T09:15:39.178Z,9.30
2018-05-27T09:18:05.903Z,12.27
2018-05-27T09:20:32.631Z,10.23
2018-05-27T09:22:59.514Z,10.27
2018-05-27T09:25:26.232Z,11.07
2018-05-27T09:27:53.023Z,11.67
2018-05-27T09:30:19.771Z,11.87
2018-05-27T09:32:46.467Z,12.67
2018-05-27T09:35:13.200Z,10.60
2018-05-27T09:37:39.910Z,9.87
2018-05-27T09:40:06.646Z,9.70
2018-05-27T09:42:33.460Z,10.10
2018-05-27T09:45:00.219Z,9.13
2018-05-27T09:47:26.954Z,9.87
2018-05-27T09:49:53.683Z,9.27
2018-05-27T09:52:20.444Z,9.00
2018-05-27T09:54:47.139Z,8.20
2018-05-27T09:57:13.959Z,8.27
2018-05-27T09:59:40.851Z,6.87
2018-05-27T10:02:07.576Z,7.40
2018-05-27T10:04:34.311Z,6.03
2018-05-27T10:07:01.078Z,6.00
2018-05-27T10:09:27.797Z,6.12
2018-05-27T10:11:54.552Z,5.85
2018-05-27T10:14:21.295Z,10.35
2018-05-27T10:16:48.063Z,4.75
2018-05-27T10:19:14.780Z,4.80
2018-05-27T10:21:41.569Z,4.75
2018-05-27T10:24:08.320Z,6.82
2018-05-27T10:26:35.084Z,4.93
2018-05-27T10:29:01.816Z,6.30
2018-05-27T10:31:28.532Z,5.15
2018-05-27T10:39:37.015Z,5.15
2018-05-27T10:42:03.713Z,4.07
2018-05-27T10:44:30.440Z,6.85
2018-05-27T10:46:57.170Z,3.53
2018-05-27T10:49:23.939Z,4.45
2018-05-27T10:51:50.647Z,8.23
2018-05-27T10:54:17.421Z,4.68
2018-05-27T10:56:44.138Z,5.95
2018-05-27T10:59:10.858Z,4.65
2018-05-27T11:01:41.394Z,5.05
2018-05-27T11:04:08.156Z,4.78
2018-05-27T11:06:34.899Z,4.93
2018-05-27T11:09:01.640Z,6.13
2018-05-27T11:11:28.387Z,4.67
2018-05-27T11:13:55.102Z,4.90
2018-05-27T11:16:21.859Z,6.00
2018-05-27T11:18:48.636Z,6.50
2018-05-27T11:21:15.375Z,4.90
2018-05-27T11:23:42.060Z,9.53
2018-05-27T11:26:09.572Z,6.57
2018-05-27T11:28:36.288Z,4.50
2018-05-27T11:31:03.071Z,5.53
2018-05-27T11:33:29.801Z,6.00
2018-05-27T11:35:56.540Z,5.03
2018-05-27T11:38:23.274Z,5.40
2018-05-27T11:40:50.017Z,7.53
2018-05-27T11:43:16.707Z,6.33
2018-05-27T11:45:43.444Z,6.03
2018-05-27T11:48:10.149Z,5.23
2018-05-27T11:50:36.839Z,4.83
2018-05-27T11:53:03.559Z,4.87
2018-05-27T11:55:30.255Z,6.63
2018-05-27T11:57:56.976Z,6.50
2018-05-27T12:00:23.673Z,5.40
2018-05-27T12:02:50.403Z,5.20
2018-05-27T12:05:17.089Z,9.73
2018-05-27T12:07:43.799Z,5.33
2018-05-27T12:10:10.492Z,5.20
2018-05-27T12:12:37.203Z,5.60
2018-05-27T12:15:03.887Z,5.33
2018-05-27T12:17:30.639Z,4.83
2018-05-27T12:19:57.327Z,5.13
2018-05-27T12:22:24.260Z,5.20
2018-05-27T12:24:50.938Z,4.57
2018-05-27T12:27:17.655Z,5.90
2018-05-27T12:29:44.392Z,4.90
2018-05-27T12:32:11.102Z,4.97
2018-05-27T12:34:37.858Z,5.07
2018-05-27T12:37:04.565Z,6.03
2018-05-27T12:39:31.280Z,5.07
2018-05-27T12:41:57.962Z,5.60
2018-05-27T12:44:24.671Z,9.43
2018-05-27T12:46:51.406Z,9.47
2018-05-27T12:49:18.120Z,4.70
2018-05-27T12:51:44.813Z,5.50
2018-05-27T12:54:11.523Z,4.27
2018-05-27T12:56:38.290Z,4.97
2018-05-27T12:59:05.021Z,4.73
2018-05-27T13:01:31.717Z,5.07
2018-05-27T13:03:58.436Z,5.10
2018-05-27T13:06:25.119Z,4.80
2018-05-27T13:08:51.832Z,4.57
2018-05-27T13:11:18.555Z,4.80
2018-05-27T13:13:45.262Z,4.77
2018-05-27T13:16:11.966Z,7.97
2018-05-27T13:18:38.686Z,4.93
2018-05-27T13:21:05.379Z,4.70
2018-05-27T13:23:32.152Z,5.03
2018-05-27T13:25:58.876Z,4.47
2018-05-27T13:28:25.562Z,4.60
2018-05-27T13:30:52.284Z,4.80
2018-05-27T13:33:18.976Z,5.37
2018-05-27T13:35:45.692Z,5.87
2018-05-27T13:38:12.408Z,5.67
2018-05-27T13:40:39.122Z,5.33
2018-05-27T13:43:05.813Z,5.23
2018-05-27T13:45:32.567Z,6.23
2018-05-27T13:47:59.234Z,5.13
2018-05-27T13:50:25.939Z,5.57
2018-05-27T13:52:52.644Z,8.20
2018-05-27T13:55:19.431Z,10.93
2018-05-27T13:57:46.086Z,6.17
2018-05-27T14:00:12.851Z,4.60
2018-05-27T14:02:39.509Z,6.60
2018-05-27T14:05:06.242Z,5.73
2018-05-27T14:07:32.944Z,5.43
2018-05-27T14:09:59.646Z,5.53
2018-05-27T14:12:26.336Z,5.70
2018-05-27T14:14:53.036Z,5.33
2018-05-27T14:17:19.738Z,6.60
2018-05-27T14:19:46.422Z,5.23
2018-05-27T14:22:13.134Z,5.50
2018-05-27T14:24:39.824Z,6.23
2018-05-27T14:27:06.607Z,5.37
2018-05-27T14:29:33.298Z,4.60
2018-05-27T14:32:00.020Z,6.20
2018-05-27T14:34:26.698Z,5.00
2018-05-27T14:36:53.414Z,4.77
2018-05-27T14:39:20.129Z,5.90
2018-05-27T14:41:46.880Z,8.43
2018-05-27T14:44:13.604Z,4.43
2018-05-27T14:46:40.312Z,4.97
2018-05-27T14:49:07.000Z,4.67
2018-05-27T14:51:33.712Z,5.40
2018-05-27T14:54:00.416Z,4.80
2018-05-27T14:56:27.131Z,4.83
2018-05-27T14:58:53.824Z,8.60
2018-05-27T15:01:20.587Z,5.00
2018-05-27T15:03:47.275Z,4.40
2018-05-27T15:06:13.964Z,4.73
2018-05-27T15:08:40.711Z,4.77
2018-05-27T15:11:07.404Z,4.77
2018-05-27T15:13:34.128Z,6.30
2018-05-27T15:16:00.821Z,6.60
2018-05-27T15:18:27.604Z,6.33
2018-05-27T15:20:54.279Z,4.43
2018-05-27T15:23:21.001Z,4.93
2018-05-27T15:25:47.681Z,4.60
2018-05-27T15:28:14.423Z,5.23
2018-05-27T15:30:41.114Z,7.17
2018-05-27T15:33:07.819Z,6.70
2018-05-27T15:35:34.509Z,3.67
2018-05-27T15:38:01.234Z,3.97
2018-05-27T15:40:27.954Z,4.00
2018-05-27T15:42:54.671Z,4.03
2018-05-27T15:45:21.364Z,5.10
2018-05-27T15:47:48.074Z,3.97
2018-05-27T15:50:14.759Z,3.60
2018-05-27T15:52:41.460Z,4.40
2018-05-27T15:55:08.177Z,8.00
2018-05-27T15:57:34.877Z,7.63
2018-05-27T16:00:01.593Z,5.20
2018-05-27T16:02:28.283Z,4.90
2018-05-27T16:04:55.016Z,3.73
2018-05-27T16:07:21.712Z,3.60
2018-05-27T16:09:48.419Z,4.03
2018-05-27T16:12:15.114Z,4.00
2018-05-27T16:14:42.500Z,4.10
2018-05-27T16:17:09.256Z,3.90
2018-05-27T16:19:35.976Z,3.90
2018-05-27T16:22:02.657Z,3.70
2018-05-27T16:24:29.371Z,4.53
2018-05-27T16:26:56.080Z,5.63
2018-05-27T16:29:22.802Z,3.70
2018-05-27T16:31:49.491Z,3.80
2018-05-27T16:34:16.201Z,5.17
2018-05-27T16:36:42.887Z,4.23
2018-05-27T16:39:09.609Z,3.70
2018-05-27T16:41:36.315Z,7.00
2018-05-27T16:44:03.011Z,4.67
2018-05-27T16:46:29.713Z,3.57
2018-05-27T16:48:56.399Z,4.10
2018-05-27T16:51:23.120Z,5.77
2018-05-27T16:53:49.802Z,4.37
2018-05-27T16:56:16.513Z,3.83
2018-05-27T16:58:43.220Z,4.13
2018-05-27T17:01:09.929Z,4.50
2018-05-27T17:03:36.635Z,4.00
2018-05-27T17:06:03.388Z,4.07
2018-05-27T17:08:30.076Z,4.33
2018-05-27T17:10:56.789Z,4.77
2018-05-27T17:13:23.512Z,3.80
2018-05-27T17:15:50.220Z,5.33
2018-05-27T17:18:16.905Z,4.23
2018-05-27T17:20:43.627Z,4.20
2018-05-27T17:23:10.318Z,4.73
2018-05-27T17:25:37.043Z,3.83
2018-05-27T17:28:03.769Z,4.30
2018-05-27T17:30:30.470Z,4.17
2018-05-27T17:32:57.185Z,4.13
2018-05-27T17:35:23.867Z,4.00
2018-05-27T17:37:50.584Z,5.00
2018-05-27T17:40:17.278Z,4.77
2018-05-27T17:42:43.978Z,6.43
2018-05-27T17:45:10.687Z,4.47
2018-05-27T17:47:37.400Z,4.17
2018-05-27T17:50:04.099Z,6.60
2018-05-27T17:52:30.890Z,4.37
2018-05-27T17:54:57.588Z,4.40
2018-05-27T17:57:24.299Z,4.10
2018-05-27T17:59:50.986Z,5.20
2018-05-27T18:02:17.695Z,4.27
2018-05-27T18:04:44.378Z,5.93
2018-05-27T18:07:11.092Z,4.23
2018-05-27T18:09:38.519Z,5.10
2018-05-27T18:12:05.235Z,5.70
2018-05-27T18:14:31.983Z,3.63
2018-05-27T18:16:58.699Z,5.23
2018-05-27T18:19:25.399Z,3.97
2018-05-27T18:21:52.100Z,5.30
2018-05-27T18:24:18.881Z,3.50
2018-05-27T18:26:45.581Z,5.60
2018-05-27T18:29:12.309Z,4.93
2018-05-27T18:31:38.995Z,8.77
2018-05-27T18:34:05.712Z,3.80
2018-05-27T18:36:32.390Z,4.10
2018-05-27T18:38:59.096Z,3.90
2018-05-27T18:41:25.782Z,3.93
2018-05-27T18:43:52.541Z,8.47
2018-05-27T18:46:19.233Z,3.73
2018-05-27T18:48:45.942Z,12.13
2018-05-27T18:51:12.643Z,5.43
2018-05-27T18:53:39.354Z,3.87
2018-05-27T18:56:06.053Z,6.07
2018-05-27T18:58:32.818Z,4.47
2018-05-27T19:00:59.515Z,4.63
2018-05-27T19:03:26.244Z,4.27
2018-05-27T19:05:52.926Z,4.30
2018-05-27T19:08:19.634Z,4.67
2018-05-27T19:10:46.327Z,6.00
2018-05-27T19:13:13.015Z,5.40
2018-05-27T19:15:39.724Z,6.40
2018-05-27T19:18:06.414Z,6.60
2018-05-27T19:20:33.121Z,6.13
2018-05-27T19:22:59.823Z,4.40
2018-05-27T19:25:26.563Z,6.70
2018-05-27T19:27:53.251Z,4.73
2018-05-27T19:30:19.961Z,6.50
2018-05-27T19:32:46.654Z,5.63
2018-05-27T19:35:13.414Z,4.60
2018-05-27T19:37:40.121Z,4.70
2018-05-27T19:40:06.844Z,6.60
2018-05-27T19:42:33.527Z,4.40
2018-05-27T19:45:00.255Z,5.90
2018-05-27T19:47:27.093Z,5.77
2018-05-27T19:49:53.823Z,5.63
2018-05-27T19:52:20.523Z,10.57
2018-05-27T19:54:47.310Z,5.43
2018-05-27T19:57:14.002Z,12.63
2018-05-27T19:59:40.740Z,7.10
2018-05-27T20:02:07.483Z,7.00
2018-05-27T20:04:34.227Z,5.03
2018-05-27T20:07:00.950Z,7.47
2018-05-27T20:09:27.680Z,7.87
2018-05-27T20:11:54.418Z,7.03
2018-05-27T20:14:21.131Z,9.50
2018-05-27T20:16:48.198Z,6.97
2018-05-27T20:19:14.970Z,6.80
2018-05-27T20:21:41.674Z,5.80
2018-05-27T20:24:09.064Z,6.33
2018-05-27T20:26:35.841Z,5.50
2018-05-27T20:29:02.562Z,6.90
2018-05-27T20:31:29.328Z,9.63
2018-05-27T20:33:56.047Z,13.60
2018-05-27T20:36:22.791Z,9.03
2018-05-27T20:38:49.515Z,11.17
2018-05-27T20:41:16.239Z,5.93
2018-05-27T20:43:42.942Z,7.70
2018-05-27T20:46:09.689Z,9.07
2018-05-27T20:48:36.472Z,8.37
2018-05-27T20:51:03.210Z,6.10
2018-05-27T20:53:29.935Z,7.63
2018-05-27T20:55:56.664Z,7.87
2018-05-27T20:58:23.479Z,9.60
2018-05-27T21:00:50.220Z,7.33
2018-05-27T21:03:17.031Z,6.83
2018-05-27T21:05:43.805Z,6.77
2018-05-27T21:08:10.536Z,6.40
2018-05-27T21:10:37.244Z,8.63
2018-05-27T21:13:04.019Z,6.53
2018-05-27T21:15:30.732Z,10.33
2018-05-27T21:17:57.473Z,6.40
2018-05-27T21:20:24.164Z,7.00
2018-05-27T21:22:50.997Z,7.23
2018-05-27T21:25:17.734Z,10.80
2018-05-27T21:27:44.514Z,8.00
2018-05-27T21:30:11.284Z,7.93
2018-05-27T21:32:38.186Z,8.13
2018-05-27T21:35:04.974Z,11.53
2018-05-27T21:37:31.723Z,9.13
2018-05-27T21:39:58.442Z,6.63
2018-05-27T21:42:25.154Z,7.83
2018-05-27T21:44:52.200Z,7.70
2018-05-27T21:47:18.971Z,10.97
2018-05-27T21:49:45.689Z,7.80
2018-05-27T21:52:12.403Z,7.50
2018-05-27T21:54:39.219Z,7.43
2018-05-27T21:57:05.967Z,6.33
2018-05-27T21:59:32.702Z,9.67
2018-05-27T22:01:59.404Z,10.83
2018-05-27T22:04:26.174Z,10.47
2018-05-27T22:06:52.903Z,8.53
2018-05-27T22:09:19.627Z,10.60
2018-05-27T22:11:46.368Z,8.63
2018-05-27T22:14:13.135Z,9.63
2018-05-27T22:16:39.856Z,7.77
2018-05-27T22:19:06.647Z,9.17
2018-05-27T22:21:33.358Z,8.30
2018-05-27T22:24:00.075Z,7.97
2018-05-27T22:26:26.825Z,6.97
2018-05-27T22:28:53.537Z,8.97
2018-05-27T22:31:20.270Z,7.33
2018-05-27T22:33:46.960Z,9.60
2018-05-27T22:36:13.741Z,9.63
2018-05-27T22:38:40.486Z,7.37
2018-05-27T22:41:07.263Z,12.47
2018-05-27T22:43:33.978Z,8.90
2018-05-27T22:46:00.703Z,9.83
2018-05-27T22:48:27.531Z,8.27
2018-05-27T22:50:54.259Z,6.60
2018-05-27T22:53:20.966Z,6.87
2018-05-27T22:55:47.737Z,8.83
2018-05-27T22:58:14.438Z,8.23
2018-05-27T23:00:41.207Z,9.50
2018-05-27T23:03:07.932Z,9.70
2018-05-27T23:05:34.670Z,9.17
2018-05-27T23:08:01.414Z,7.50
2018-05-27T23:10:28.158Z,6.97
2018-05-27T23:12:54.871Z,10.27
2018-05-27T23:15:21.664Z,10.43
2018-05-27T23:17:48.447Z,12.73
2018-05-27T23:20:15.127Z,14.17
2018-05-27T23:22:41.842Z,10.70
2018-05-27T23:25:08.540Z,14.00
2018-05-27T23:27:35.268Z,6.70
2018-05-27T23:30:01.983Z,8.97
2018-05-27T23:32:28.700Z,10.00
2018-05-27T23:34:55.410Z,9.03
2018-05-27T23:37:22.119Z,7.80
2018-05-27T23:39:48.849Z,12.83
2018-05-27T23:42:15.638Z,8.53
2018-05-27T23:44:42.401Z,7.37
2018-05-27T23:47:09.139Z,7.73
2018-05-27T23:49:35.838Z,7.33
2018-05-27T23:52:02.680Z,6.73
2018-05-27T23:54:29.414Z,8.87
2018-05-27T23:56:56.183Z,8.93
2018-05-27T23:59:22.898Z,7.43
